This is the latest recevied weather packets stored in our database for station/object WC4PEM-7. If no packets are shown the sender has not sent any weather packets the latest 10 day(s).
| Time | Temp. | Humidity | Pressure | Rain* | Wind** | Luminosity | Snow |
|---|---|---|---|---|---|---|---|
| 1777484226 | 30° C | 54% | 1015.4 hPa | 0 mm | - | - | - |
| 1777484040 | 30° C | 54% | 1015.4 hPa | 0 mm | - | - | - |
| 1777483865 | 30.56° C | 54% | 1015.5 hPa | 0 mm | - | - | - |
| 1777483740 | 30.56° C | 54% | 1015.5 hPa | 0 mm | - | - | - |
| 1777483578 | 30° C | 57% | 1015.6 hPa | 0 mm | - | - | - |
| 1777483440 | 30° C | 57% | 1015.6 hPa | 0 mm | - | - | - |
| 1777483230 | 29.44° C | 59% | 1015.5 hPa | 0 mm | - | - | - |
| 1777483140 | 29.44° C | 59% | 1015.5 hPa | 0 mm | - | - | - |
| 1777482840 | 28.89° C | 57% | 1015.7 hPa | 0 mm | - | - | - |
| 1777482622 | 28.89° C | 59% | 1015.7 hPa | 0 mm | - | - | - |
| 1777482540 | 28.89° C | 59% | 1015.7 hPa | 0 mm | - | - | - |
| 1777482240 | 28.89° C | 59% | 1015.7 hPa | 0 mm | - | - | - |
| 1777481940 | 28.89° C | 58% | 1015.9 hPa | 0 mm | - | - | - |
| 1777481640 | 28.89° C | 60% | 1015.8 hPa | 0 mm | - | - | - |
| 1777481479 | 28.89° C | 60% | 1016 hPa | 0 mm | - | - | - |
| 1777481340 | 28.89° C | 60% | 1016 hPa | 0 mm | - | - | - |
| 1777481040 | 28.33° C | 59% | 1016.2 hPa | 0 mm | - | - | - |
| 1777480877 | 28.33° C | 60% | 1016.4 hPa | 0 mm | - | - | - |
| 1777480740 | 28.33° C | 60% | 1016.4 hPa | 0 mm | - | - | - |
| 1777480611 | 28.33° C | 60% | 1016.6 hPa | 0 mm | - | - | - |
| 1777480440 | 28.33° C | 60% | 1016.6 hPa | 0 mm | - | - | - |
| 1777480140 | 28.33° C | 61% | 1016.7 hPa | 0 mm | - | - | - |
| 1777479840 | 28.33° C | 61% | 1016.9 hPa | 0 mm | - | - | - |
| 1777479574 | 27.22° C | 66% | 1017.3 hPa | 0 mm | - | - | - |
| 1777479540 | 28.89° C | 61% | 1017.1 hPa | 0 mm | - | - | - |
* Rain latest hour (hover to see other rain measurements)
** Current wind speed in m/s (hover to see current wind gust speed)